EDT,Max TemperatureF,Mean TemperatureF,Min TemperatureF,Max Dew PointF,MeanDew PointF,Min DewpointF,Max Humidity, Mean Humidity, Min Humidity, Max Sea Level PressureIn, Mean Sea Level PressureIn, Min Sea Level PressureIn, Max VisibilityMiles, Mean VisibilityMiles, Min VisibilityMiles, Max Wind SpeedMPH, Mean Wind SpeedMPH, Max Gust SpeedMPH,PrecipitationIn, CloudCover, Events, WindDirDegrees
2013-6-1,88,78,68,74,67,57,100,86,37,30.16,30.13,30.04,10,6,0,12,3,,0.00,4,Fog,180
2013-6-2,88,76,66,70,66,62,100,75,43,30.09,30.00,29.91,10,10,4,15,6,,0.04,2,Rain,195
2013-6-3,87,78,71,72,70,65,94,80,51,29.95,29.90,29.83,10,9,1,14,6,16,0.19,5,Rain-Thunderstorm,198
2013-6-4,86,77,68,70,68,64,94,70,53,30.05,30.00,29.93,10,10,2,13,5,,0.04,4,Rain-Thunderstorm,112
2013-6-5,84,78,71,73,70,66,96,85,58,30.06,30.02,29.96,10,9,4,16,7,23,0.19,6,Rain,89
2013-6-6,82,76,71,72,69,66,100,88,57,29.97,29.87,29.76,10,9,3,22,7,28,0.51,5,Rain,143
2013-6-7,84,76,69,72,69,63,100,89,55,29.86,29.64,29.50,10,7,1,24,12,36,1.35,7,Rain-Thunderstorm,2
2013-6-8,87,77,69,70,66,62,94,74,44,30.08,29.96,29.84,10,10,6,15,9,32,0.04,4,Rain-Thunderstorm,222
2013-6-9,84,78,71,79,71,63,100,91,62,30.15,30.11,30.06,10,7,0,17,3,26,0.14,5,Fog-Rain-Thunderstorm,133
2013-6-10,85,78,71,73,70,66,100,85,60,30.09,30.02,29.97,10,9,0,26,9,36,1.22,5,Fog-Rain-Thunderstorm,200
2013-6-11,89,78,69,72,68,64,94,77,44,30.01,29.98,29.92,10,10,8,13,8,18,0.01,4,Rain,244
2013-6-12,93,81,69,76,71,65,100,84,40,30.00,29.95,29.90,10,6,0,9,2,,0.00,1,Fog,228
2013-6-13,96,84,73,73,70,66,91,68,39,29.90,29.79,29.67,10,9,2,25,10,40,0.21,2,Rain-Thunderstorm,256
2013-6-14,85,76,68,72,57,50,92,54,30,30.01,29.88,29.76,10,10,10,16,8,21,0.00,1,,1
2013-6-15,86,74,62,60,56,51,80,55,31,30.13,30.09,30.03,10,10,10,10,3,,0.00,1,Rain,145
2013-6-16,87,74,63,64,61,57,80,59,40,30.17,30.11,30.04,10,10,10,13,6,,0.00,1,,200
2013-6-17,89,78,67,72,67,61,95,72,46,30.07,30.00,29.93,10,9,0,29,9,37,0.46,4,Fog-Rain-Thunderstorm,201
2013-6-18,88,79,70,70,68,63,94,78,52,29.98,29.91,29.84,10,10,10,23,8,25,0.02,5,Rain-Thunderstorm,214
2013-6-19,81,74,69,68,66,60,88,79,50,30.08,29.95,29.89,10,10,7,10,6,,0.01,5,Rain,3
2013-6-20,85,76,67,66,62,55,94,70,37,30.18,30.14,30.08,10,10,8,18,8,23,0.00,1,,48
2013-6-21,85,74,62,61,55,42,84,55,24,30.22,30.18,30.14,10,10,10,14,7,,0.00,0,,37
2013-6-22,86,77,68,70,65,59,78,66,49,30.19,30.15,30.10,10,10,10,10,6,,0.00,5,Rain,26
2013-6-23,88,79,71,71,68,64,94,75,48,30.21,30.16,30.12,10,9,2,14,4,23,0.22,4,Rain-Thunderstorm,63
2013-6-24,88,79,71,74,70,64,100,85,50,30.23,30.18,30.14,10,9,2,18,3,23,0.00,4,Rain-Thunderstorm,183
2013-6-25,88,80,72,71,67,61,94,69,49,30.16,30.10,30.03,10,10,10,21,6,33,0.00,2,Thunderstorm,228
2013-6-26,89,80,71,72,68,65,88,73,56,30.06,30.01,29.94,10,9,5,20,7,25,0.02,2,Rain-Thunderstorm,214
2013-6-27,93,82,71,75,71,64,94,77,38,29.97,29.86,29.77,10,8,1,31,7,38,0.24,4,Rain-Thunderstorm,206
2013-6-28,93,82,73,71,69,67,85,64,43,29.79,29.72,29.64,10,10,10,14,9,24,0.00,1,,223
2013-6-29,88,80,73,70,67,64,81,70,54,29.74,29.70,29.66,10,10,10,14,9,,0.00,4,Rain,212
2013-6-30,90,80,71,75,71,66,100,86,46,29.85,29.80,29.72,10,10,6,16,7,18,0.47,5,Rain,172